Ames, Iowa
Current Conditions -  °F | °C
As of 3:53 AM on Friday 19 Dec 2014 (Local Time) from KAMW Reporting Station
Overcast Overcast  
Wind Chill: 21°   Ceiling: 1100
Heat Index: 26°   Visibility: 8mi
Dew Point: 22°   Wind: 5mph
Humidity: 84%   Direction: 140°SE
Pressure: 30.26"   Gusts: NA
Location:  42.03°N, 93.62°W
Report Text: KAMW 190953Z AUTO 14004KT 8SM OVC011 M03/M06 A3026 RMK AO2 SLP256 T10331056
Loading
Personal Weather Stations






























Interactive Weather Map New forecast layout! Learn more

10-Day Weather Forecast

Advertisements
Track Severe Weather on mobile